Time;durP1;ratioP1;P1;durP2;ratioP2;P2;SDS_P1;SDS_P2;PMS_P1;PMS_P2;Temp;Humidity;BMP_temperature;BMP_pressure;BME280_temperature;BME280_humidity;BME280_pressure;Samples;Min_cycle;Max_cycle;Signal;HPM_P1;HPM_P2
2022/11/29 00:01:25;;;;;;;45.67;19.10;;;;;;;8.23;100.00;100923.63;5074364;28;20044;-67
2022/11/29 00:03:52;;;;;;;43.10;19.30;;;;;;;8.30;100.00;100926.59;5073292;28;20448;-66
2022/11/29 00:06:22;;;;;;;45.50;19.50;;;;;;;8.23;100.00;100928.94;5073270;28;20051;-67
2022/11/29 00:08:49;;;;;;;41.55;19.63;;;;;;;8.20;100.00;100932.66;5073584;28;20046;-67
2022/11/29 00:14:08;;;;;;;43.58;20.08;;;;;;;8.10;100.00;100923.88;5073367;28;20390;-67
2022/11/29 00:16:35;;;;;;;48.10;20.30;;;;;;;8.13;100.00;100930.69;5073824;28;20443;-67
2022/11/29 00:19:02;;;;;;;46.45;20.02;;;;;;;8.11;100.00;100932.63;5073577;28;20040;-67
2022/11/29 00:21:29;;;;;;;46.97;21.15;;;;;;;8.19;100.00;100931.00;5073669;28;20131;-67
2022/11/29 00:23:56;;;;;;;44.60;21.08;;;;;;;8.20;100.00;100926.53;5072398;28;20125;-68
2022/11/29 00:26:22;;;;;;;59.67;22.52;;;;;;;8.26;100.00;100931.31;5073746;28;20055;-66
2022/11/29 00:28:49;;;;;;;47.13;19.88;;;;;;;8.24;100.00;100927.94;5073558;28;20048;-67
2022/11/29 00:31:22;;;;;;;49.30;21.27;;;;;;;8.18;100.00;100931.94;5073500;28;20066;-67
2022/11/29 00:33:50;;;;;;;45.13;21.00;;;;;;;8.25;100.00;100925.16;5073382;28;20040;-67
2022/11/29 00:36:18;;;;;;;40.88;20.15;;;;;;;8.24;100.00;100927.94;5089239;28;20119;-67
2022/11/29 00:38:45;;;;;;;49.60;21.50;;;;;;;8.23;100.00;100926.28;5073435;28;20056;-67
2022/11/29 00:41:12;;;;;;;48.30;20.25;;;;;;;8.21;100.00;100931.69;5073733;28;20070;-67
2022/11/29 00:43:39;;;;;;;48.63;20.90;;;;;;;8.12;100.00;100942.25;5073317;28;20393;-67
2022/11/29 00:46:07;;;;;;;41.72;21.02;;;;;;;8.07;100.00;100938.16;5073290;28;20448;-67
2022/11/29 00:48:35;;;;;;;42.95;20.38;;;;;;;8.09;100.00;100943.31;5073111;28;20045;-67
2022/11/29 00:51:03;;;;;;;47.55;20.55;;;;;;;8.11;100.00;100935.28;5071814;28;20037;-67
2022/11/29 00:53:31;;;;;;;56.60;21.10;;;;;;;8.02;100.00;100931.63;5073543;28;20040;-67
2022/11/29 00:55:58;;;;;;;51.15;21.20;;;;;;;8.07;100.00;100938.16;5073326;28;20048;-67
2022/11/29 00:58:25;;;;;;;45.55;20.50;;;;;;;8.00;100.00;100934.38;5088622;28;20048;-67
2022/11/29 01:00:52;;;;;;;48.15;19.98;;;;;;;8.07;100.00;100937.34;5072797;28;20044;-68
2022/11/29 01:03:19;;;;;;;48.22;21.27;;;;;;;8.09;100.00;100935.41;5073512;28;20055;-67
2022/11/29 01:05:46;;;;;;;38.03;19.55;;;;;;;8.00;100.00;100937.03;5072347;28;20048;-67
2022/11/29 01:08:13;;;;;;;51.22;20.92;;;;;;;8.09;100.00;100943.31;5088921;28;20500;-67
2022/11/29 01:10:40;;;;;;;46.63;21.15;;;;;;;8.12;100.00;100935.16;5072940;28;20048;-67
2022/11/29 01:13:08;;;;;;;47.50;21.35;;;;;;;8.13;100.00;100941.25;5072137;28;20045;-67
2022/11/29 01:15:35;;;;;;;49.10;20.48;;;;;;;8.12;100.00;100936.97;5072919;28;20048;-68
2022/11/29 01:18:02;;;;;;;50.78;20.73;;;;;;;8.11;100.00;100940.56;5073173;28;20045;-68
2022/11/29 01:20:29;;;;;;;64.72;21.77;;;;;;;8.12;100.00;100942.25;5075707;28;20623;-68
2022/11/29 01:22:55;;;;;;;44.17;20.38;;;;;;;8.06;100.00;100946.25;5076899;28;20493;-68
2022/11/29 01:25:22;;;;;;;51.70;21.67;;;;;;;7.97;100.00;100949.69;5077316;28;20048;-68
2022/11/29 01:27:49;;;;;;;53.08;21.00;;;;;;;7.93;100.00;100951.75;5075481;28;20053;-68
2022/11/29 01:30:15;;;;;;;50.83;21.60;;;;;;;7.98;100.00;100951.34;5076731;28;20051;-68
2022/11/29 01:32:42;;;;;;;56.67;20.83;;;;;;;7.98;100.00;100944.25;5075494;28;20052;-68
2022/11/29 01:35:09;;;;;;;48.50;20.77;;;;;;;7.92;100.00;100949.25;5076689;28;20072;-68
2022/11/29 01:37:37;;;;;;;55.38;21.63;;;;;;;7.93;100.00;100946.47;5076665;28;20071;-68
2022/11/29 01:40:04;;;;;;;51.17;21.23;;;;;;;7.87;100.00;100949.63;5076802;28;20119;-67
2022/11/29 01:42:31;;;;;;;58.78;23.20;;;;;;;7.82;100.00;100955.31;5076835;28;20048;-68
2022/11/29 01:45:03;;;;;;;53.75;22.52;;;;;;;7.85;100.00;100949.75;5076322;28;20406;-68
2022/11/29 01:47:30;;;;;;;60.83;24.15;;;;;;;7.84;100.00;100948.09;5076758;28;20047;-68
2022/11/29 01:49:58;;;;;;;63.00;24.67;;;;;;;7.87;100.00;100954.91;5076574;28;20567;-68
2022/11/29 01:52:30;;;;;;;59.50;25.30;;;;;;;7.92;100.00;100950.06;5076135;28;20161;-68
2022/11/29 01:55:00;;;;;;;65.90;25.67;;;;;;;7.89;100.00;100958.25;5076938;28;20409;-68
2022/11/29 01:57:28;;;;;;;73.20;26.85;;;;;;;7.94;100.00;100949.94;5075876;28;20052;-68
2022/11/29 02:00:01;;;;;;;71.45;28.42;;;;;;;8.00;100.00;100966.09;5076618;28;20048;-68
2022/11/29 02:02:56;;;;;;;75.97;28.70;;;;;;;8.08;100.00;100965.44;5111286;27;20777;-68
2022/11/29 02:05:24;;;;;;;83.20;29.35;;;;;;;8.06;100.00;100967.41;5109675;28;20039;-68
2022/11/29 02:07:53;;;;;;;83.13;30.35;;;;;;;8.16;100.00;100959.50;5110929;28;20048;-67
2022/11/29 02:10:31;;;;;;;80.60;28.90;;;;;;;8.23;100.00;100966.75;5111295;28;20519;-68
2022/11/29 02:13:11;;;;;;;69.22;29.98;;;;;;;8.16;100.00;100957.69;5110289;28;20052;-67
2022/11/29 02:15:53;;;;;;;86.80;28.27;;;;;;;8.22;100.00;100961.59;5110996;28;20127;-67
2022/11/29 02:18:35;;;;;;;76.65;27.88;;;;;;;8.23;100.00;100965.91;5110921;28;20564;-68
2022/11/29 02:21:14;;;;;;;84.30;29.02;;;;;;;8.26;100.00;100963.84;5110437;28;20044;-67
2022/11/29 02:27:26;;;;;;;69.85;28.10;;;;;;;8.24;100.00;100967.59;5111086;27;20376;-67
2022/11/29 02:30:05;;;;;;;65.72;27.27;;;;;;;8.18;100.00;100970.75;5110840;28;20036;-68
2022/11/29 02:32:59;;;;;;;82.35;28.95;;;;;;;8.04;100.00;100971.94;5111270;28;20043;-67
2022/11/29 02:36:05;;;;;;;86.00;30.73;;;;;;;7.96;100.00;100977.91;5110863;28;20032;-67
2022/11/29 02:41:39;;;;;;;99.70;33.47;;;;;;;7.92;100.00;100970.38;5111010;27;20362;-67
2022/11/29 02:44:27;;;;;;;107.32;32.28;;;;;;;7.91;100.00;100984.53;5110881;28;20430;-67
2022/11/29 02:47:11;;;;;;;96.30;31.80;;;;;;;8.06;100.00;100983.25;5111273;28;20076;-67
2022/11/29 02:50:17;;;;;;;107.25;33.30;;;;;;;8.01;100.00;100980.16;5110888;28;20044;-67
2022/11/29 02:53:11;;;;;;;114.05;34.50;;;;;;;7.99;100.00;100985.56;5090727;28;20044;-67
2022/11/29 02:55:46;;;;;;;109.15;33.28;;;;;;;8.02;100.00;100985.31;5090159;28;20041;-67
2022/11/29 02:58:53;;;;;;;108.97;33.65;;;;;;;8.07;100.00;100985.72;5090718;28;20044;-67
2022/11/29 03:01:28;;;;;;;109.95;33.72;;;;;;;8.07;100.00;100991.00;5090302;28;20048;-67
2022/11/29 03:04:32;;;;;;;113.38;35.33;;;;;;;8.09;100.00;100993.53;5090542;28;20114;-67
2022/11/29 03:07:37;;;;;;;106.63;36.00;;;;;;;8.10;100.00;100989.94;5089599;28;20102;-67
2022/11/29 03:10:21;;;;;;;119.18;35.53;;;;;;;8.17;100.00;100996.38;5090277;28;20040;-68
2022/11/29 03:12:52;;;;;;;114.47;34.90;;;;;;;8.22;100.00;101006.53;5090209;28;20062;-67
2022/11/29 03:15:57;;;;;;;118.93;36.47;;;;;;;8.15;100.00;101002.72;5090513;28;20040;-67
2022/11/29 03:18:40;;;;;;;102.28;34.10;;;;;;;8.11;100.00;101004.81;5088843;28;20504;-67
2022/11/29 03:21:17;;;;;;;121.60;35.50;;;;;;;8.16;100.00;101004.41;5096627;28;20043;-67
2022/11/29 03:23:47;;;;;;;108.07;35.85;;;;;;;8.16;100.00;101007.06;5110297;28;20050;-68
2022/11/29 03:26:19;;;;;;;121.75;37.08;;;;;;;8.17;100.00;101014.03;5110801;28;20044;-68
2022/11/29 03:29:08;;;;;;;112.93;36.15;;;;;;;8.22;100.00;101009.16;5110025;28;20431;-67
2022/11/29 03:31:41;;;;;;;116.35;36.35;;;;;;;8.16;100.00;101021.09;5109088;28;20046;-67
2022/11/29 03:37:02;;;;;;;137.65;38.10;;;;;;;8.14;100.00;101022.22;5070791;28;20390;-67
2022/11/29 03:39:55;;;;;;;141.15;40.05;;;;;;;8.15;100.00;101021.22;5070532;28;20044;-67
2022/11/29 03:42:30;;;;;;;136.33;37.13;;;;;;;8.13;100.00;101025.81;5070474;28;20055;-67
2022/11/29 03:45:13;;;;;;;140.75;37.10;;;;;;;8.12;100.00;101027.63;5070317;28;20158;-67
2022/11/29 03:47:49;;;;;;;134.40;37.15;;;;;;;8.17;100.00;101033.38;5070650;28;20130;-67
2022/11/29 03:50:26;;;;;;;135.23;38.08;;;;;;;8.14;100.00;101030.16;5070515;28;20087;-67
2022/11/29 03:52:56;;;;;;;130.32;38.85;;;;;;;8.10;100.00;101026.09;5050422;28;20479;-67
2022/11/29 03:55:31;;;;;;;147.40;39.10;;;;;;;8.04;100.00;101036.22;5050532;28;20041;-67
2022/11/29 03:58:28;;;;;;;147.13;39.00;;;;;;;7.88;100.00;101027.91;5050408;28;20060;-67
2022/11/29 04:04:12;;;;;;;170.35;39.70;;;;;;;7.82;100.00;101038.97;5111279;27;20388;-67
2022/11/29 04:10:03;;;;;;;163.25;38.80;;;;;;;7.87;100.00;101034.97;5110839;27;20377;-67
2022/11/29 04:12:53;;;;;;;184.02;39.22;;;;;;;7.90;100.00;101041.00;5110100;28;20562;-68
2022/11/29 04:16:01;;;;;;;175.07;39.58;;;;;;;7.98;100.00;101049.94;5111143;28;20507;-68
2022/11/29 04:19:08;;;;;;;176.80;37.95;;;;;;;7.86;100.00;101049.16;5111000;28;20039;-68
2022/11/29 04:21:56;;;;;;;186.35;38.00;;;;;;;7.80;100.00;101051.47;5110773;28;20054;-67
2022/11/29 04:24:55;;;;;;;197.98;39.22;;;;;;;7.85;100.00;101052.75;5109528;28;20046;-68
2022/11/29 04:27:55;;;;;;;174.23;37.97;;;;;;;7.85;100.00;101052.75;5110915;28;20058;-67
2022/11/29 04:30:24;;;;;;;191.68;37.38;;;;;;;7.89;100.00;101058.63;5110346;28;20067;-67
2022/11/29 04:33:30;;;;;;;189.23;38.30;;;;;;;7.91;100.00;101055.88;5111041;28;20101;-68
2022/11/29 04:36:27;;;;;;;185.52;37.60;;;;;;;7.79;100.00;101050.66;5110149;28;20515;-67
2022/11/29 04:39:22;;;;;;;199.70;37.42;;;;;;;7.75;100.00;101053.66;5111097;28;20603;-68
2022/11/29 04:42:30;;;;;;;215.60;38.70;;;;;;;7.77;100.00;101054.41;5110612;28;20093;-67
2022/11/29 04:45:31;;;;;;;177.40;36.28;;;;;;;7.75;100.00;101061.59;5110294;28;20046;-68
2022/11/29 04:48:25;;;;;;;181.00;36.25;;;;;;;7.72;100.00;101062.69;5110417;28;20051;-68
2022/11/29 04:51:31;;;;;;;201.02;36.97;;;;;;;7.77;100.00;101073.72;5110406;28;20047;-67
2022/11/29 04:54:13;;;;;;;189.02;38.47;;;;;;;7.86;100.00;101077.41;5110084;28;20127;-67
2022/11/29 04:56:45;;;;;;;188.68;39.22;;;;;;;7.80;100.00;101081.34;5110204;28;20047;-67
2022/11/29 04:59:42;;;;;;;184.52;37.72;;;;;;;7.81;100.00;101084.88;5110452;28;20132;-67
2022/11/29 05:02:28;;;;;;;173.98;36.03;;;;;;;7.79;100.00;101090.28;5110062;28;20095;-67
2022/11/29 05:05:18;;;;;;;201.23;38.75;;;;;;;7.76;100.00;101087.03;5108761;28;20047;-67
2022/11/29 05:07:58;;;;;;;213.45;41.28;;;;;;;7.73;100.00;101096.06;5109383;28;20056;-67
2022/11/29 05:10:34;;;;;;;200.68;39.35;;;;;;;7.73;100.00;101100.50;5109775;28;20085;-68
2022/11/29 05:13:40;;;;;;;213.88;42.22;;;;;;;7.72;100.00;101098.84;5109927;28;20070;-68
2022/11/29 05:16:39;;;;;;;205.40;38.47;;;;;;;7.73;100.00;101103.13;5109502;28;20040;-68
2022/11/29 05:19:42;;;;;;;215.10;40.55;;;;;;;7.72;100.00;101101.47;5106698;28;20049;-68
2022/11/29 05:22:47;;;;;;;225.90;42.25;;;;;;;7.75;100.00;101102.06;5095689;28;20091;-68
2022/11/29 05:28:29;;;;;;;212.77;41.17;;;;;;;7.74;100.00;101118.84;5110736;27;20896;-67
2022/11/29 05:31:36;;;;;;;212.13;39.85;;;;;;;7.66;100.00;101108.94;5110970;28;20044;-68
2022/11/29 05:34:29;;;;;;;196.55;39.05;;;;;;;7.59;100.00;101118.31;5110679;28;20044;-67
2022/11/29 05:37:37;;;;;;;210.52;39.17;;;;;;;7.62;100.00;101119.84;5126051;28;20032;-67
2022/11/29 05:40:28;;;;;;;215.90;39.97;;;;;;;7.62;100.00;101119.84;5110689;28;20040;-67
2022/11/29 05:43:34;;;;;;;197.23;37.10;;;;;;;7.65;100.00;101125.72;5110961;28;20054;-67
2022/11/29 05:46:20;;;;;;;201.73;36.58;;;;;;;7.67;100.00;101134.34;5109347;28;20089;-67
2022/11/29 05:49:12;;;;;;;177.18;34.42;;;;;;;7.64;100.00;101128.47;5111024;28;20101;-67
2022/11/29 05:51:51;;;;;;;185.23;34.93;;;;;;;7.62;100.00;101136.56;5110416;28;20051;-67
2022/11/29 05:54:32;;;;;;;179.35;33.42;;;;;;;7.61;100.00;101145.44;5110467;28;20278;-66
2022/11/29 05:57:14;;;;;;;180.40;33.00;;;;;;;7.56;100.00;101147.59;5110577;28;20397;-66
2022/11/29 05:59:44;;;;;;;160.55;32.95;;;;;;;7.68;100.00;101151.88;5110541;28;20455;-66
2022/11/29 06:08:30;;;;;;;161.68;32.40;;;;;;;7.70;100.00;101162.34;5110747;27;20366;-68
2022/11/29 06:11:12;;;;;;;156.57;32.03;;;;;;;7.77;100.00;101170.59;5111069;28;20048;-68
2022/11/29 06:14:19;;;;;;;157.18;30.00;;;;;;;7.80;100.00;101171.16;5110930;28;20043;-68
2022/11/29 06:17:27;;;;;;;155.43;31.70;;;;;;;7.79;100.00;101179.25;5109798;28;20119;-68
2022/11/29 06:20:09;;;;;;;154.90;31.48;;;;;;;7.87;100.00;101174.16;5110501;28;20048;-68
2022/11/29 06:22:57;;;;;;;153.10;31.00;;;;;;;7.90;100.00;101178.34;5110490;28;20046;-68
2022/11/29 06:25:52;;;;;;;144.65;30.40;;;;;;;7.81;100.00;101183.41;5092612;28;20046;-67
2022/11/29 06:28:31;;;;;;;148.25;30.60;;;;;;;7.72;100.00;101185.97;5110719;28;20044;-68
2022/11/29 06:31:22;;;;;;;145.18;30.38;;;;;;;7.67;100.00;101187.16;5110671;28;20129;-68
2022/11/29 06:34:14;;;;;;;143.20;30.55;;;;;;;7.65;100.00;101189.09;5110662;28;20131;-68
2022/11/29 06:36:46;;;;;;;157.60;31.75;;;;;;;7.65;100.00;101188.28;5110088;28;20040;-68
2022/11/29 06:39:13;;;;;;;141.07;29.60;;;;;;;7.79;100.00;101192.44;5110932;28;20051;-69
2022/11/29 06:41:41;;;;;;;156.90;31.70;;;;;;;7.83;100.00;101199.16;5110163;28;20089;-68
2022/11/29 06:44:09;;;;;;;145.27;31.02;;;;;;;7.89;100.00;101198.63;5110580;28;20079;-68
2022/11/29 06:47:02;;;;;;;131.63;30.98;;;;;;;7.86;100.00;101201.53;5110354;28;20048;-68
2022/11/29 06:49:37;;;;;;;135.63;30.08;;;;;;;7.85;100.00;101198.03;5109849;28;20516;-66
2022/11/29 06:52:33;;;;;;;122.30;29.13;;;;;;;7.88;100.00;101199.63;5109837;28;20042;-68
2022/11/29 06:55:36;;;;;;;151.50;29.55;;;;;;;7.79;100.00;101205.66;5109568;28;20051;-68
2022/11/29 07:01:06;;;;;;;149.90;29.77;;;;;;;7.71;100.00;101202.78;5110826;27;20323;-68
2022/11/29 07:03:39;;;;;;;;;;;;;;;7.64;100.00;101210.34;5111696;28;20048;-68
2022/11/29 07:06:16;;;;;;;138.43;26.58;;;;;;;7.57;100.00;101211.81;5110130;28;20407;-67
2022/11/29 07:08:46;;;;;;;143.65;29.00;;;;;;;7.52;100.00;101216.63;5094751;28;20063;-67
2022/11/29 07:11:13;;;;;;;171.27;30.67;;;;;;;7.48;100.00;101218.69;5090186;28;20121;-68
2022/11/29 07:13:40;;;;;;;168.35;32.28;;;;;;;7.43;100.00;101221.66;5090330;28;20052;-67
2022/11/29 07:16:32;;;;;;;160.15;31.02;;;;;;;7.44;100.00;101225.13;5090476;28;20099;-68
2022/11/29 07:19:19;;;;;;;155.93;30.08;;;;;;;7.45;100.00;101235.56;5090208;28;20541;-67
2022/11/29 07:22:00;;;;;;;144.63;30.55;;;;;;;7.45;100.00;101234.75;5102294;28;20343;-68
2022/11/29 07:27:17;;;;;;;152.45;30.65;;;;;;;7.46;100.00;101233.81;5110917;27;20376;-67
2022/11/29 07:30:03;;;;;;;143.43;30.17;;;;;;;7.37;100.00;101242.41;5111010;28;20054;-67
2022/11/29 07:32:49;;;;;;;153.25;31.55;;;;;;;7.37;100.00;101240.63;5109547;28;20039;-67
2022/11/29 07:35:56;;;;;;;157.55;30.30;;;;;;;7.39;100.00;101248.44;5109734;28;20025;-67
2022/11/29 07:38:56;;;;;;;151.35;31.38;;;;;;;7.36;100.00;101251.31;5109823;28;20044;-67
2022/11/29 07:41:39;;;;;;;148.35;30.83;;;;;;;7.31;100.00;101254.31;5110577;28;20153;-67
2022/11/29 07:44:37;;;;;;;164.30;31.30;;;;;;;7.30;100.00;101257.91;5074707;28;20093;-67
2022/11/29 07:47:04;;;;;;;171.18;32.92;;;;;;;7.33;100.00;101262.09;5115602;28;20175;-68
2022/11/29 07:49:31;;;;;;;147.00;30.27;;;;;;;7.37;100.00;101266.16;5104822;28;20043;-68
2022/11/29 07:51:58;;;;;;;177.82;32.92;;;;;;;7.37;100.00;101271.44;5120544;27;20063;-68
2022/11/29 07:54:25;;;;;;;167.63;32.55;;;;;;;7.46;100.00;101278.69;5119338;27;20051;-68
2022/11/29 07:56:51;;;;;;;163.48;33.33;;;;;;;7.39;100.00;101278.31;5116338;27;20053;-68
2022/11/29 07:59:18;;;;;;;152.65;33.55;;;;;;;7.37;100.00;101279.38;5108155;28;20089;-68
2022/11/29 08:01:45;;;;;;;141.05;34.72;;;;;;;7.39;100.00;101278.31;5106159;28;20038;-68
2022/11/29 08:04:13;;;;;;;153.77;33.95;;;;;;;7.41;100.00;101280.84;5105693;28;20048;-67
2022/11/29 08:06:39;;;;;;;154.88;33.67;;;;;;;7.41;100.00;101280.84;5103423;27;20059;-67
2022/11/29 08:09:06;;;;;;;183.05;42.28;;;;;;;7.48;100.00;101288.16;5108103;28;20043;-67
2022/11/29 08:11:33;;;;;;;163.40;34.63;;;;;;;7.44;100.00;101284.06;5103779;27;20088;-67
2022/11/29 08:14:01;;;;;;;171.38;35.83;;;;;;;7.46;100.00;101282.16;5112765;27;20100;-67
2022/11/29 08:16:28;;;;;;;167.27;36.70;;;;;;;7.46;100.00;101286.59;5122777;27;20044;-67
2022/11/29 08:18:55;;;;;;;180.32;38.05;;;;;;;7.40;100.00;101287.06;5113986;27;20042;-67
2022/11/29 08:21:22;;;;;;;177.75;37.03;;;;;;;7.48;100.00;101285.50;5109317;28;20048;-67
2022/11/29 08:23:49;;;;;;;167.60;36.38;;;;;;;7.71;100.00;101293.41;5104606;28;20069;-67
2022/11/29 08:26:19;;;;;;;165.73;37.40;;;;;;;7.71;100.00;101295.22;5122543;28;20051;-67
2022/11/29 08:28:51;;;;;;;166.52;41.42;;;;;;;7.72;100.00;101288.97;5092094;28;20860;-67
2022/11/29 08:31:20;;;;;;;170.38;40.72;;;;;;;7.82;100.00;101297.81;5105169;28;20039;-67
2022/11/29 08:33:46;;;;;;;180.15;40.75;;;;;;;7.78;100.00;101299.03;5108191;27;20044;-68
2022/11/29 08:36:18;;;;;;;183.40;42.30;;;;;;;7.63;100.00;101295.81;5115467;28;20488;-67
2022/11/29 08:38:46;;;;;;;169.98;40.38;;;;;;;7.67;100.00;101300.72;5101090;28;20097;-68
2022/11/29 08:41:15;;;;;;;161.13;39.67;;;;;;;7.75;100.00;101310.69;5098742;28;20040;-68
2022/11/29 08:43:42;;;;;;;176.38;42.53;;;;;;;7.77;100.00;101307.94;5090566;28;20515;-67
2022/11/29 08:46:10;;;;;;;172.40;42.72;;;;;;;7.89;100.00;101304.31;5097636;28;20055;-67
2022/11/29 08:48:40;;;;;;;181.90;45.38;;;;;;;7.97;100.00;101317.75;5086890;28;20119;-68
2022/11/29 08:51:07;;;;;;;146.40;40.58;;;;;;;7.78;100.00;101321.00;5094833;28;20089;-68
2022/11/29 08:53:41;;;;;;;174.43;42.03;;;;;;;7.66;100.00;101314.91;5095174;28;20048;-68
2022/11/29 08:56:13;;;;;;;147.82;38.10;;;;;;;7.62;100.00;101317.88;5105223;28;20048;-68
2022/11/29 08:58:57;;;;;;;132.82;38.10;;;;;;;7.72;100.00;101312.75;5090793;28;20040;-68
2022/11/29 09:01:24;;;;;;;144.45;36.38;;;;;;;7.74;100.00;101324.03;5105632;28;20055;-68
2022/11/29 09:03:58;;;;;;;158.27;36.10;;;;;;;7.65;100.00;101326.41;5099402;28;20138;-68
2022/11/29 09:06:27;;;;;;;136.63;35.30;;;;;;;7.77;100.00;101329.91;5076041;28;20048;-68
2022/11/29 09:08:55;;;;;;;159.88;34.63;;;;;;;7.78;100.00;101334.22;5108059;28;20051;-68
2022/11/29 09:11:23;;;;;;;139.15;35.60;;;;;;;7.72;100.00;101347.06;5099732;28;20048;-68
2022/11/29 09:13:53;;;;;;;138.20;32.22;;;;;;;7.63;100.00;101344.19;5086869;28;20055;-69
2022/11/29 09:16:24;;;;;;;149.88;32.72;;;;;;;7.75;100.00;101339.75;5098429;28;20036;-68
2022/11/29 09:18:53;;;;;;;157.23;33.65;;;;;;;7.70;100.00;101341.91;5086563;28;20064;-68
2022/11/29 09:21:23;;;;;;;134.55;33.50;;;;;;;7.66;100.00;101346.59;5099550;28;20075;-67
2022/11/29 09:23:58;;;;;;;157.48;32.95;;;;;;;7.79;100.00;101351.75;5101731;28;20040;-68
2022/11/29 09:26:28;;;;;;;160.02;35.38;;;;;;;7.73;100.00;101348.75;5081484;27;20052;-68
2022/11/29 09:28:56;;;;;;;131.23;32.38;;;;;;;7.81;100.00;101356.91;5091466;27;20125;-69
2022/11/29 09:31:23;;;;;;;167.25;34.70;;;;;;;7.89;100.00;101365.06;5091277;28;21100;-68
2022/11/29 09:33:50;;;;;;;145.07;33.17;;;;;;;7.93;100.00;101360.38;5097210;28;20048;-68
2022/11/29 09:36:18;;;;;;;163.80;33.40;;;;;;;7.96;100.00;101363.63;5107943;28;20050;-68
2022/11/29 09:38:46;;;;;;;153.95;32.95;;;;;;;7.90;100.00;101368.56;5084927;28;20037;-68
2022/11/29 09:44:36;;;;;;;165.68;33.53;;;;;;;8.07;100.00;101378.63;5075221;27;20369;-68
2022/11/29 09:47:43;;;;;;;152.02;33.05;;;;;;;8.05;100.00;101386.66;5095916;28;20048;-68
2022/11/29 09:50:35;;;;;;;167.93;33.38;;;;;;;8.04;100.00;101385.00;5090696;28;20135;-68
2022/11/29 09:53:29;;;;;;;161.25;31.15;;;;;;;8.07;100.00;101391.81;5085839;28;20488;-68
2022/11/29 09:56:14;;;;;;;160.55;30.67;;;;;;;7.95;100.00;101383.09;5078774;28;20051;-68
2022/11/29 09:58:48;;;;;;;146.98;31.40;;;;;;;7.85;100.00;101385.59;5112656;27;20119;-68
2022/11/29 10:01:22;;;;;;;167.93;30.85;;;;;;;7.92;100.00;101383.31;5085918;28;20044;-68
2022/11/29 10:03:53;;;;;;;160.65;33.65;;;;;;;8.00;100.00;101382.72;5092401;28;20043;-68
2022/11/29 10:06:27;;;;;;;162.68;32.67;;;;;;;7.86;100.00;101392.56;5092892;28;20464;-68
2022/11/29 10:09:04;;;;;;;145.68;31.15;;;;;;;7.94;100.00;101391.97;5080808;28;20458;-68
2022/11/29 10:11:58;;;;;;;174.77;33.28;;;;;;;7.96;100.00;101387.38;5095677;28;20051;-68
2022/11/29 10:14:32;;;;;;;149.00;32.65;;;;;;;8.11;100.00;101389.78;5088023;28;21342;-68
2022/11/29 10:17:22;;;;;;;139.50;31.80;;;;;;;7.97;100.00;101388.25;5095733;28;20098;-67
2022/11/29 10:19:53;;;;;;;146.00;31.67;;;;;;;7.90;100.00;101390.53;5073015;28;20044;-68
2022/11/29 10:22:37;;;;;;;132.02;31.77;;;;;;;8.03;100.00;101387.75;5078320;28;20045;-67
2022/11/29 10:25:07;;;;;;;126.80;30.42;;;;;;;8.18;100.00;101389.16;5082150;28;20068;-69
2022/11/29 10:27:38;;;;;;;122.75;30.17;;;;;;;8.07;100.00;101383.91;5079612;28;20052;-69
2022/11/29 10:30:14;;;;;;;125.03;32.22;;;;;;;8.10;100.00;101388.94;5087471;28;20504;-68
2022/11/29 10:32:44;;;;;;;126.95;33.05;;;;;;;8.06;100.00;101384.88;5132923;27;20051;-68
2022/11/29 10:35:14;;;;;;;125.05;33.03;;;;;;;8.15;100.00;101380.63;5126317;27;20447;-68
2022/11/29 10:37:41;;;;;;;116.22;32.78;;;;;;;8.22;100.00;101385.34;5087067;28;20059;-68
2022/11/29 10:40:16;;;;;;;129.80;31.92;;;;;;;8.13;100.00;101385.22;5098926;28;20048;-68
2022/11/29 10:42:58;;;;;;;103.90;29.98;;;;;;;8.26;100.00;101391.22;5090595;28;20153;-69
2022/11/29 10:45:27;;;;;;;;;;;;;;;8.28;100.00;101389.28;5082530;28;20370;-66
2022/11/29 10:48:06;;;;;;;101.03;28.60;;;;;;;8.17;100.00;101382.22;5076860;28;19959;-67
2022/11/29 10:50:35;;;;;;;100.63;29.42;;;;;;;8.10;100.00;101381.03;5063598;28;20104;-66
2022/11/29 10:53:07;;;;;;;121.88;31.35;;;;;;;8.05;100.00;101383.19;5081782;28;20082;-67
2022/11/29 10:55:59;;;;;;;110.32;32.65;;;;;;;8.12;100.00;101387.03;5073830;28;20056;-68
2022/11/29 10:58:27;;;;;;;111.28;31.50;;;;;;;8.01;100.00;101382.59;5059324;28;20052;-68
2022/11/29 11:01:01;;;;;;;123.45;33.40;;;;;;;8.01;100.00;101390.50;5074808;28;20404;-67
2022/11/29 11:06:25;;;;;;;103.75;31.15;;;;;;;8.08;100.00;101390.88;5117086;27;20399;-68
2022/11/29 11:08:56;;;;;;;109.57;30.17;;;;;;;7.97;100.00;101386.44;5105414;28;20160;-68
2022/11/29 11:11:31;;;;;;;108.10;30.40;;;;;;;8.02;100.00;101380.78;5099881;28;20036;-68
2022/11/29 11:14:05;;;;;;;101.60;30.15;;;;;;;8.03;100.00;101388.59;5105565;28;20048;-68
2022/11/29 11:16:32;;;;;;;97.22;29.80;;;;;;;7.96;100.00;101384.75;5093784;28;20131;-69
2022/11/29 11:19:27;;;;;;;103.25;30.83;;;;;;;8.04;100.00;101395.56;5106942;28;20051;-68
2022/11/29 11:21:56;;;;;;;101.53;30.45;;;;;;;8.12;100.00;101394.13;5100333;28;20047;-68
2022/11/29 11:24:27;;;;;;;99.93;29.98;;;;;;;8.15;100.00;101400.00;5106680;28;20495;-69
2022/11/29 11:26:54;;;;;;;99.50;28.60;;;;;;;8.27;100.00;101388.44;5100100;28;20055;-68
2022/11/29 11:29:25;;;;;;;102.22;29.90;;;;;;;8.08;100.00;101389.06;5105841;28;20044;-68
2022/11/29 11:31:55;;;;;;;102.63;29.37;;;;;;;8.20;100.00;101394.34;5093352;28;20447;-68
2022/11/29 11:34:37;;;;;;;96.85;28.25;;;;;;;8.15;100.00;101393.84;5105222;28;20300;-68
2022/11/29 11:37:25;;;;;;;98.22;28.75;;;;;;;8.09;100.00;101395.19;5096542;28;20089;-69
2022/11/29 11:39:57;;;;;;;99.07;28.45;;;;;;;8.03;100.00;101395.69;5099458;28;20078;-69
2022/11/29 11:42:38;;;;;;;89.57;27.50;;;;;;;7.97;100.00;101397.00;5104271;28;20044;-68
2022/11/29 11:47:55;;;;;;;107.55;30.95;;;;;;;8.12;100.00;101397.59;5105454;27;20392;-67
2022/11/29 11:50:42;;;;;;;95.35;29.42;;;;;;;8.14;100.00;101394.84;5094268;28;20119;-68
2022/11/29 11:53:28;;;;;;;107.00;28.95;;;;;;;8.11;100.00;101403.81;5091364;28;20056;-68
2022/11/29 11:56:04;;;;;;;104.90;29.02;;;;;;;8.24;100.00;101403.69;5094695;28;20047;-69
2022/11/29 11:58:36;;;;;;;92.63;27.25;;;;;;;8.26;100.00;101394.69;5097800;28;20550;-68
2022/11/29 12:04:11;;;;;;;90.85;27.48;;;;;;;8.41;100.00;101397.91;5073922;28;20372;-68
2022/11/29 12:07:00;;;;;;;94.23;27.07;;;;;;;8.48;100.00;101406.22;5063788;28;20087;-69
2022/11/29 12:09:38;;;;;;;95.88;27.65;;;;;;;8.60;100.00;101407.00;5082344;28;20063;-68
2022/11/29 12:15:25;;;;;;;96.18;27.75;;;;;;;8.46;100.00;101405.50;5121052;27;20370;-68
2022/11/29 12:18:25;;;;;;;98.95;27.20;;;;;;;8.50;100.00;101406.09;5085496;28;20528;-68
2022/11/29 12:20:59;;;;;;;93.20;27.88;;;;;;;8.55;100.00;101412.69;5090532;28;20063;-67
2022/11/29 12:23:52;;;;;;;110.82;29.48;;;;;;;8.46;100.00;101405.50;5099123;28;20032;-68
2022/11/29 12:26:22;;;;;;;103.07;27.98;;;;;;;8.42;100.00;101420.78;5096893;28;20634;-68
2022/11/29 12:29:14;;;;;;;103.13;27.80;;;;;;;8.33;100.00;101412.69;5075527;28;20042;-68
2022/11/29 12:32:10;;;;;;;112.07;29.40;;;;;;;8.26;100.00;101418.47;5090331;28;20492;-68
2022/11/29 12:35:17;;;;;;;106.35;28.60;;;;;;;8.26;100.00;101428.22;5085662;28;20051;-68
2022/11/29 12:37:58;;;;;;;103.85;28.38;;;;;;;8.30;100.00;101423.53;5085061;28;20471;-68
2022/11/29 12:41:05;;;;;;;111.27;28.77;;;;;;;8.36;100.00;101431.78;5098475;28;20040;-68
2022/11/29 12:43:58;;;;;;;108.25;28.65;;;;;;;8.38;100.00;101434.31;5081298;28;20124;-68